Time;durP1;ratioP1;P1;durP2;ratioP2;P2;SDS_P1;SDS_P2;PMS_P1;PMS_P2;Temp;Humidity;BMP_temperature;BMP_pressure;BME280_temperature;BME280_humidity;BME280_pressure;Samples;Min_cycle;Max_cycle;Signal;HPM_P1;HPM_P2
2022/09/28 00:01:18;;;;;;;3.93;2.30;;;10.40;89.80;;;;;;4969943;28;20470;-90
2022/09/28 00:03:46;;;;;;;9.43;2.90;;;10.30;89.80;;;;;;4954679;28;20842;-90
2022/09/28 00:06:16;;;;;;;2.87;2.20;;;10.30;89.80;;;;;;4953258;28;20465;-90
2022/09/28 00:08:42;;;;;;;3.90;2.83;;;10.30;89.80;;;;;;4969674;28;20549;-90
2022/09/28 00:11:12;;;;;;;5.73;3.50;;;10.40;89.80;;;;;;4954600;28;21342;-90
2022/09/28 00:13:40;;;;;;;7.30;2.83;;;10.40;89.80;;;;;;4956546;28;20521;-90
2022/09/28 00:16:12;;;;;;;4.67;2.43;;;10.50;89.80;;;;;;4953506;28;20573;-90
2022/09/28 00:18:40;;;;;;;3.13;2.60;;;10.50;89.80;;;;;;4964749;28;20482;-90
2022/09/28 00:21:15;;;;;;;2.87;2.40;;;10.40;89.80;;;;;;4953347;28;20470;-90
2022/09/28 00:26:30;;;;;;;8.43;2.73;;;10.40;89.80;;;;;;4973417;28;20473;-90
2022/09/28 00:29:00;;;;;;;5.10;3.50;;;10.40;89.80;;;;;;4953791;28;20517;-90
2022/09/28 00:31:30;;;;;;;7.33;3.00;;;10.30;89.80;;;;;;4968611;28;20532;-90
2022/09/28 00:33:59;;;;;;;7.33;2.80;;;10.20;89.80;;;;;;4956936;28;20549;-90
2022/09/28 00:36:27;;;;;;;4.13;3.30;;;10.20;89.80;;;;;;4970455;28;20546;-90
2022/09/28 00:38:57;;;;;;;3.27;2.97;;;10.20;89.80;;;;;;4952281;28;21030;-90
2022/09/28 00:41:26;;;;;;;4.83;3.07;;;10.10;89.80;;;;;;4950552;28;20463;-90
2022/09/28 00:44:14;;;;;;;2.50;2.30;;;10.00;89.80;;;;;;4954184;28;21301;-90
2022/09/28 00:46:40;;;;;;;5.03;3.23;;;10.00;89.80;;;;;;4967145;28;20462;-90
2022/09/28 00:49:13;;;;;;;4.80;3.00;;;10.00;89.80;;;;;;4955942;28;20967;-90
2022/09/28 00:51:43;;;;;;;3.90;2.73;;;10.00;89.80;;;;;;4956238;28;20476;-90
2022/09/28 00:54:11;;;;;;;3.10;2.80;;;10.00;89.80;;;;;;4972380;28;20956;-90
2022/09/28 00:56:40;;;;;;;3.17;2.80;;;10.00;89.80;;;;;;4965566;28;20506;-90
2022/09/28 00:59:08;;;;;;;6.43;3.27;;;10.00;89.80;;;;;;4969074;28;21201;-90
2022/09/28 01:01:35;;;;;;;3.13;2.53;;;10.00;89.80;;;;;;4956340;28;20466;-90
2022/09/28 01:04:03;;;;;;;4.30;2.87;;;10.00;89.80;;;;;;4951436;28;20489;-90
2022/09/28 01:06:34;;;;;;;4.90;3.30;;;10.10;89.80;;;;;;4958312;28;20974;-90
2022/09/28 01:09:05;;;;;;;5.07;2.90;;;10.10;89.80;;;;;;4953169;28;20473;-90
2022/09/28 01:11:35;;;;;;;2.80;2.60;;;10.10;89.80;;;;;;4953404;28;20532;-90
2022/09/28 01:14:02;;;;;;;3.50;3.10;;;10.20;89.80;;;;;;4951157;28;20462;-90
2022/09/28 01:16:51;;;;;;;5.73;3.20;;;10.20;89.80;;;;;;4966706;28;20494;-90
2022/09/28 01:19:57;;;;;;;5.30;3.20;;;10.20;89.80;;;;;;4970501;28;20477;-90
2022/09/28 01:22:33;;;;;;;5.43;3.07;;;10.30;89.80;;;;;;4966923;28;20517;-90
2022/09/28 01:25:10;;;;;;;6.10;3.50;;;10.30;89.80;;;;;;4951756;28;20573;-90
2022/09/28 01:27:43;;;;;;;4.40;3.47;;;10.30;89.80;;;;;;4957267;28;20470;-90
2022/09/28 01:30:14;;;;;;;5.20;3.20;;;10.40;89.80;;;;;;4955176;28;20473;-90
2022/09/28 01:32:56;;;;;;;3.93;2.83;;;10.50;89.80;;;;;;4971916;28;20498;-90
2022/09/28 01:35:30;;;;;;;4.23;2.70;;;10.60;89.80;;;;;;4953853;28;20494;-90
2022/09/28 01:38:06;;;;;;;5.03;3.03;;;10.60;89.80;;;;;;4953991;28;21036;-90
2022/09/28 01:40:35;;;;;;;2.83;2.63;;;10.60;89.80;;;;;;4970066;28;20450;-90
2022/09/28 01:43:09;;;;;;;5.53;2.90;;;10.70;89.80;;;;;;4953034;28;20534;-90
2022/09/28 01:45:43;;;;;;;4.70;3.20;;;10.70;89.80;;;;;;4968221;28;20519;-90
2022/09/28 01:48:12;;;;;;;3.83;3.20;;;10.60;89.80;;;;;;4954389;28;20509;-90
2022/09/28 01:50:41;;;;;;;4.30;3.70;;;10.60;89.80;;;;;;4972693;28;20521;-90
2022/09/28 01:53:27;;;;;;;6.17;3.10;;;10.60;89.80;;;;;;4951771;28;20502;-90
2022/09/28 01:56:00;;;;;;;5.70;3.37;;;10.70;89.80;;;;;;4967791;28;21194;-90
2022/09/28 01:58:41;;;;;;;4.67;3.13;;;10.80;89.80;;;;;;4947542;28;20826;-90
2022/09/28 02:01:20;;;;;;;3.60;3.30;;;10.70;89.80;;;;;;4968551;28;20517;-90
2022/09/28 02:04:01;;;;;;;4.10;3.13;;;10.70;89.80;;;;;;4951144;28;20561;-90
2022/09/28 02:06:37;;;;;;;4.83;3.33;;;10.70;89.80;;;;;;4966917;28;20466;-90
2022/09/28 02:09:16;;;;;;;6.90;3.13;;;10.70;89.80;;;;;;4968224;28;20473;-90
2022/09/28 02:11:48;;;;;;;3.43;3.13;;;10.70;89.80;;;;;;4965174;28;20466;-90
2022/09/28 02:14:16;;;;;;;3.70;3.40;;;10.80;89.80;;;;;;4969904;28;20988;-90
2022/09/28 02:16:48;;;;;;;5.27;3.07;;;10.80;89.80;;;;;;4949904;28;20502;-90
2022/09/28 02:19:22;;;;;;;6.40;3.57;;;10.80;89.80;;;;;;4964618;28;20470;-90
2022/09/28 02:21:48;;;;;;;6.07;4.80;;;10.80;89.80;;;;;;4969405;28;20482;-90
2022/09/28 02:24:37;;;;;;;5.20;4.70;;;10.80;89.80;;;;;;4950653;28;21006;-90
2022/09/28 02:27:24;;;;;;;6.33;4.77;;;10.70;89.80;;;;;;4950858;28;20552;-90
2022/09/28 02:29:51;;;;;;;4.97;4.40;;;10.60;89.80;;;;;;4973605;28;20457;-90
2022/09/28 02:32:19;;;;;;;4.17;2.97;;;10.70;89.80;;;;;;4951509;28;20470;-89
2022/09/28 02:34:46;;;;;;;3.50;3.20;;;10.70;89.80;;;;;;4952329;28;20462;-90
2022/09/28 02:37:13;;;;;;;3.13;2.40;;;10.70;89.80;;;;;;4951961;28;20467;-90
2022/09/28 02:39:39;;;;;;;4.87;2.40;;;10.70;89.80;;;;;;4968641;28;20490;-90
2022/09/28 02:42:32;;;;;;;3.60;2.67;;;10.70;89.80;;;;;;4951421;28;20505;-90
2022/09/28 02:45:05;;;;;;;6.60;2.97;;;10.70;89.80;;;;;;4954215;28;20466;-90
2022/09/28 02:47:57;;;;;;;5.10;3.20;;;10.70;89.80;;;;;;4967401;28;20920;-90
2022/09/28 02:50:51;;;;;;;6.20;2.50;;;10.70;89.80;;;;;;4946835;28;21187;-90
2022/09/28 02:54:00;;;;;;;20.87;3.23;;;10.60;89.80;;;;;;4959198;28;20517;-88
2022/09/28 02:56:37;;;;;;;3.80;3.07;;;10.60;89.80;;;;;;4961125;28;20521;-88
2022/09/28 02:59:19;;;;;;;5.33;3.40;;;10.60;89.80;;;;;;4951213;28;20457;-88
2022/09/28 03:02:14;;;;;;;6.43;3.70;;;10.60;89.80;;;;;;4950402;28;20515;-86
2022/09/28 03:04:43;;;;;;;3.40;2.80;;;10.50;89.80;;;;;;4970224;28;20497;-86
2022/09/28 03:07:23;;;;;;;4.57;3.37;;;10.50;89.80;;;;;;4956594;28;20504;-86
2022/09/28 03:10:02;;;;;;;4.50;2.60;;;10.50;89.80;;;;;;4971675;28;20521;-86
2022/09/28 03:12:30;;;;;;;2.10;1.90;;;10.50;89.80;;;;;;4955536;28;20462;-86
2022/09/28 03:15:25;;;;;;;2.23;1.90;;;10.50;89.80;;;;;;4955923;28;20470;-86
2022/09/28 03:17:52;;;;;;;2.03;1.90;;;10.60;89.80;;;;;;4954451;28;20959;-86
2022/09/28 03:20:19;;;;;;;2.10;1.33;;;10.60;89.80;;;;;;4967907;28;20485;-86
2022/09/28 03:22:46;;;;;;;1.57;1.47;;;10.60;89.80;;;;;;4952863;28;20462;-86
2022/09/28 03:25:32;;;;;;;1.33;1.10;;;10.60;89.80;;;;;;4958608;28;20530;-86
2022/09/28 03:27:59;;;;;;;1.00;0.90;;;10.60;89.80;;;;;;4972789;28;20988;-86
2022/09/28 03:30:26;;;;;;;1.30;1.20;;;10.60;89.80;;;;;;4957168;28;20546;-86
2022/09/28 03:32:59;;;;;;;2.80;1.50;;;10.60;89.80;;;;;;4972310;28;20880;-86
2022/09/28 03:35:26;;;;;;;1.83;1.30;;;10.60;89.80;;;;;;4955018;28;21006;-86
2022/09/28 03:37:56;;;;;;;5.20;1.07;;;10.60;89.80;;;;;;4955779;28;20462;-86
2022/09/28 03:40:23;;;;;;;1.43;1.20;;;10.60;89.80;;;;;;4955713;28;20549;-86
2022/09/28 03:42:49;;;;;;;0.90;0.90;;;10.60;89.80;;;;;;4956475;28;20498;-86
2022/09/28 03:45:16;;;;;;;6.73;1.17;;;10.50;89.80;;;;;;4954103;28;20462;-86
2022/09/28 03:47:47;;;;;;;1.63;1.20;;;10.50;89.80;;;;;;4954392;28;20491;-86
2022/09/28 03:50:14;;;;;;;0.90;0.90;;;10.50;89.80;;;;;;4953472;28;20893;-86
2022/09/28 03:52:41;;;;;;;1.27;0.97;;;10.50;89.80;;;;;;4974866;28;20541;-86
2022/09/28 03:55:09;;;;;;;1.07;0.80;;;10.50;89.80;;;;;;4953415;28;20985;-86
2022/09/28 03:57:36;;;;;;;0.90;0.90;;;10.50;89.80;;;;;;4954782;28;20486;-86
2022/09/28 04:00:04;;;;;;;1.10;0.97;;;10.50;89.80;;;;;;4954735;28;20490;-86
2022/09/28 04:02:32;;;;;;;1.23;1.00;;;10.50;89.80;;;;;;4954311;28;20529;-86
2022/09/28 04:04:59;;;;;;;2.13;0.80;;;10.50;89.80;;;;;;4953854;28;20462;-86
2022/09/28 04:07:25;;;;;;;2.00;1.03;;;10.40;89.80;;;;;;4956343;28;20977;-86
2022/09/28 04:09:56;;;;;;;2.37;0.90;;;10.40;89.80;;;;;;4959977;28;20482;-86
2022/09/28 04:12:23;;;;;;;1.57;0.60;;;10.40;89.80;;;;;;4971239;28;20496;-86
2022/09/28 04:14:50;;;;;;;0.90;0.90;;;10.40;89.80;;;;;;4955151;28;20871;-86
2022/09/28 04:17:16;;;;;;;5.23;1.10;;;10.30;89.80;;;;;;4947125;28;20551;-86
2022/09/28 04:19:43;;;;;;;1.47;1.10;;;10.30;89.80;;;;;;4955440;28;20864;-86
2022/09/28 04:22:09;;;;;;;2.73;1.63;;;10.40;89.80;;;;;;4953160;28;20556;-86
2022/09/28 04:24:36;;;;;;;1.63;1.20;;;10.40;89.80;;;;;;4971315;28;20837;-87
2022/09/28 04:29:48;;;;;;;2.00;1.17;;;10.40;89.80;;;;;;4971261;28;20545;-86
2022/09/28 04:32:14;;;;;;;1.77;1.10;;;10.40;89.80;;;;;;4950141;28;20949;-86
2022/09/28 04:34:41;;;;;;;1.13;1.07;;;10.20;89.80;;;;;;4955426;28;22760;-86
2022/09/28 04:37:10;;;;;;;2.33;2.23;;;10.20;89.80;;;;;;4948944;28;20505;-86
2022/09/28 04:39:37;;;;;;;1.63;1.53;;;10.10;89.80;;;;;;4953592;28;20490;-86
2022/09/28 04:42:03;;;;;;;1.47;1.37;;;10.00;89.80;;;;;;4954789;28;20463;-86
2022/09/28 04:44:30;;;;;;;3.10;1.50;;;10.00;89.80;;;;;;4956078;28;21100;-86
2022/09/28 04:46:56;;;;;;;3.17;1.40;;;10.00;89.80;;;;;;4969217;28;20521;-86
2022/09/28 04:49:29;;;;;;;2.70;1.80;;;9.90;89.80;;;;;;4956554;28;20984;-86
2022/09/28 04:51:56;;;;;;;2.07;1.63;;;10.00;89.80;;;;;;4950311;28;20565;-86
2022/09/28 04:54:23;;;;;;;3.53;1.20;;;10.10;89.80;;;;;;4954365;28;20839;-86
2022/09/28 04:56:51;;;;;;;2.37;2.00;;;10.10;89.80;;;;;;4950942;28;20924;-86
2022/09/28 04:59:18;;;;;;;1.83;1.50;;;10.10;89.80;;;;;;4949916;28;20462;-87
2022/09/28 05:01:46;;;;;;;2.60;2.00;;;10.20;89.80;;;;;;4972000;28;21131;-86
2022/09/28 05:04:12;;;;;;;4.80;2.83;;;10.20;89.80;;;;;;4965167;28;21248;-86
2022/09/28 05:06:39;;;;;;;4.57;2.30;;;10.20;89.80;;;;;;4968604;28;20502;-86
2022/09/28 05:09:08;;;;;;;2.57;2.27;;;10.20;89.80;;;;;;4967285;28;20477;-86
2022/09/28 05:11:34;;;;;;;2.20;2.00;;;10.20;89.80;;;;;;4956044;28;20536;-86
2022/09/28 05:14:01;;;;;;;2.67;2.47;;;10.30;89.80;;;;;;4952788;28;20546;-86
2022/09/28 05:16:29;;;;;;;3.47;2.50;;;10.30;89.80;;;;;;4954744;28;20493;-86
2022/09/28 05:18:56;;;;;;;3.00;2.07;;;10.30;89.80;;;;;;4952414;28;21024;-86
2022/09/28 05:21:25;;;;;;;3.30;2.03;;;10.30;89.80;;;;;;4952682;28;20549;-86
2022/09/28 05:23:54;;;;;;;1.70;1.60;;;10.20;89.80;;;;;;4952826;28;20463;-86
2022/09/28 05:26:22;;;;;;;2.17;1.97;;;10.20;89.80;;;;;;4954076;28;20466;-86
2022/09/28 05:28:49;;;;;;;3.10;1.60;;;10.20;89.80;;;;;;4954551;28;20466;-86
2022/09/28 05:31:16;;;;;;;3.50;2.20;;;10.20;89.80;;;;;;4969451;28;20872;-86
2022/09/28 05:33:43;;;;;;;1.53;1.43;;;10.10;89.80;;;;;;4965893;28;20473;-86
2022/09/28 05:36:10;;;;;;;3.00;2.10;;;10.10;89.80;;;;;;4952354;28;20493;-86
2022/09/28 05:38:36;;;;;;;1.60;1.50;;;10.10;89.80;;;;;;4954522;28;21045;-86
2022/09/28 05:41:03;;;;;;;2.90;1.93;;;10.10;89.80;;;;;;4953735;28;20542;-86
2022/09/28 05:43:32;;;;;;;10.13;7.40;;;10.00;89.80;;;;;;4951684;28;20466;-86
2022/09/28 05:45:59;;;;;;;11.20;5.87;;;10.10;89.80;;;;;;4952523;28;20466;-86
2022/09/28 05:48:27;;;;;;;5.03;3.03;;;9.90;89.80;;;;;;4957094;28;20501;-86
2022/09/28 05:50:54;;;;;;;3.00;2.10;;;9.80;89.80;;;;;;4952653;28;20470;-87
2022/09/28 05:53:21;;;;;;;2.00;1.80;;;9.70;89.80;;;;;;4953889;28;20501;-86
2022/09/28 05:55:47;;;;;;;2.50;2.30;;;9.60;89.80;;;;;;4955633;28;20474;-86
2022/09/28 05:58:14;;;;;;;4.70;2.33;;;9.50;89.80;;;;;;4953652;28;20596;-86
2022/09/28 06:00:41;;;;;;;2.37;2.20;;;9.50;89.80;;;;;;4955634;28;20452;-86
2022/09/28 06:03:13;;;;;;;2.30;2.10;;;9.50;89.80;;;;;;4954858;28;20549;-86
2022/09/28 06:05:40;;;;;;;3.00;2.10;;;9.60;89.80;;;;;;4953219;28;20509;-86
2022/09/28 06:08:11;;;;;;;3.03;2.53;;;9.60;89.80;;;;;;4970480;28;20529;-86
2022/09/28 06:10:38;;;;;;;3.20;2.40;;;9.70;89.80;;;;;;4966977;28;20479;-86
2022/09/28 06:13:05;;;;;;;2.37;2.17;;;9.70;89.80;;;;;;4955568;28;20494;-86
2022/09/28 06:15:34;;;;;;;2.37;2.17;;;9.80;89.80;;;;;;4953530;28;20467;-86
2022/09/28 06:18:08;;;;;;;2.50;2.23;;;9.80;89.80;;;;;;4950691;28;20505;-86
2022/09/28 06:20:38;;;;;;;2.70;1.57;;;9.80;89.80;;;;;;4969966;28;20462;-87
2022/09/28 06:23:05;;;;;;;2.00;1.87;;;9.80;89.80;;;;;;4952743;28;20486;-86
2022/09/28 06:25:32;;;;;;;5.10;2.17;;;9.80;89.80;;;;;;4968599;28;20578;-86
2022/09/28 06:28:06;;;;;;;3.67;2.03;;;9.80;89.80;;;;;;4969110;28;20520;-86
2022/09/28 06:30:35;;;;;;;4.20;1.77;;;9.90;89.80;;;;;;4967424;28;20471;-86
2022/09/28 06:33:02;;;;;;;2.30;2.10;;;9.90;89.80;;;;;;4953516;28;21399;-86
2022/09/28 06:35:29;;;;;;;3.63;1.70;;;10.00;89.80;;;;;;4954495;28;20517;-86
2022/09/28 06:37:58;;;;;;;3.60;1.80;;;10.00;89.80;;;;;;4972382;28;20497;-86
2022/09/28 06:40:26;;;;;;;2.20;2.00;;;10.00;89.80;;;;;;4954953;28;20454;-86
2022/09/28 06:42:57;;;;;;;3.37;2.17;;;10.00;89.80;;;;;;4959022;28;20458;-86
2022/09/28 06:45:25;;;;;;;2.27;1.83;;;10.00;89.80;;;;;;4953478;28;20473;-86
2022/09/28 06:47:57;;;;;;;3.10;1.83;;;10.10;89.80;;;;;;4955664;28;20466;-86
2022/09/28 06:50:31;;;;;;;1.57;1.43;;;10.10;89.80;;;;;;4955289;28;20473;-86
2022/09/28 06:52:59;;;;;;;1.73;1.63;;;10.10;89.80;;;;;;4973642;28;20870;-86
2022/09/28 06:55:26;;;;;;;1.87;1.77;;;10.20;89.80;;;;;;4967038;28;20469;-86
2022/09/28 06:57:59;;;;;;;1.80;1.70;;;10.20;89.80;;;;;;4958133;28;20482;-86
2022/09/28 07:00:32;;;;;;;2.13;1.80;;;10.20;89.80;;;;;;4961014;28;20981;-86
2022/09/28 07:03:01;;;;;;;2.00;1.83;;;10.30;89.80;;;;;;4957348;28;20467;-86
2022/09/28 07:05:28;;;;;;;1.60;1.50;;;10.40;89.80;;;;;;4971093;28;20518;-86
2022/09/28 07:07:56;;;;;;;1.80;1.70;;;10.40;89.80;;;;;;4947982;28;20481;-86
2022/09/28 07:10:26;;;;;;;1.73;1.63;;;10.40;89.80;;;;;;4954467;28;20471;-86
2022/09/28 07:12:54;;;;;;;2.57;1.70;;;10.40;89.80;;;;;;4976865;28;20466;-86
2022/09/28 07:15:21;;;;;;;2.00;1.77;;;10.50;89.80;;;;;;4958480;28;20501;-86
2022/09/28 07:17:48;;;;;;;2.57;1.93;;;10.50;89.80;;;;;;4956118;28;20494;-86
2022/09/28 07:20:28;;;;;;;2.40;1.53;;;10.50;89.80;;;;;;4958356;28;20458;-86
2022/09/28 07:22:56;;;;;;;2.10;1.90;;;10.50;89.80;;;;;;4957148;28;20462;-86
2022/09/28 07:25:35;;;;;;;1.87;1.77;;;10.60;89.80;;;;;;4974624;28;20527;-86
2022/09/28 07:28:03;;;;;;;1.60;1.40;;;10.60;89.80;;;;;;4957060;28;20889;-86
2022/09/28 07:30:33;;;;;;;4.93;1.60;;;10.60;89.80;;;;;;4957347;28;20469;-86
2022/09/28 07:33:01;;;;;;;2.50;1.50;;;10.60;89.80;;;;;;4954260;28;20474;-86
2022/09/28 07:35:28;;;;;;;1.70;1.60;;;10.60;89.80;;;;;;4953278;28;20470;-86
2022/09/28 07:38:00;;;;;;;2.07;1.53;;;10.70;89.80;;;;;;4957220;28;21056;-86
2022/09/28 07:43:21;;;;;;;2.93;1.80;;;10.80;89.60;;;;;;4974533;28;20453;-86
2022/09/28 07:45:51;;;;;;;3.77;1.43;;;10.90;89.00;;;;;;4960237;28;20461;-86
2022/09/28 07:48:18;;;;;;;2.67;1.70;;;10.90;89.10;;;;;;4956275;28;20457;-86
2022/09/28 07:50:53;;;;;;;2.10;2.00;;;11.00;89.20;;;;;;4956752;28;20494;-86
2022/09/28 07:53:23;;;;;;;2.87;1.90;;;11.00;88.70;;;;;;4969132;28;20466;-86
2022/09/28 07:55:55;;;;;;;1.90;1.70;;;11.10;88.10;;;;;;4953303;28;20462;-86
2022/09/28 07:58:22;;;;;;;1.93;1.70;;;11.00;88.30;;;;;;4970546;28;21073;-86
2022/09/28 08:00:49;;;;;;;2.67;2.03;;;11.10;88.70;;;;;;4954396;28;20800;-86
2022/09/28 08:03:18;;;;;;;2.80;2.30;;;11.10;88.40;;;;;;4956597;28;20465;-86
2022/09/28 08:05:46;;;;;;;2.20;2.10;;;11.20;88.30;;;;;;4956277;28;20487;-86
2022/09/28 08:08:14;;;;;;;2.60;2.00;;;11.20;88.50;;;;;;4954948;28;20579;-86
2022/09/28 08:10:44;;;;;;;3.17;1.97;;;11.20;88.30;;;;;;4955303;28;20512;-86
2022/09/28 08:13:13;;;;;;;5.63;2.53;;;11.20;88.50;;;;;;4954813;28;20466;-86
2022/09/28 08:15:41;;;;;;;5.00;1.83;;;11.30;88.30;;;;;;4955452;28;20489;-86
2022/09/28 08:18:07;;;;;;;2.87;2.03;;;11.40;87.10;;;;;;4956836;28;21019;-86
2022/09/28 08:23:19;;;;;;;2.50;2.30;;;11.40;86.90;;;;;;4971511;28;20944;-86
2022/09/28 08:25:52;;;;;;;4.30;2.30;;;11.40;86.70;;;;;;4953770;28;20462;-86
2022/09/28 08:28:21;;;;;;;2.67;1.60;;;11.40;86.90;;;;;;4952862;28;20498;-86
2022/09/28 08:30:48;;;;;;;2.30;1.40;;;11.50;85.70;;;;;;4958183;28;20470;-86
2022/09/28 08:33:17;;;;;;;2.33;1.40;;;11.50;86.10;;;;;;4957419;28;20490;-86
2022/09/28 08:35:45;;;;;;;3.70;1.57;;;11.60;86.00;;;;;;4954766;28;20528;-86
2022/09/28 08:38:12;;;;;;;1.93;1.50;;;11.70;84.30;;;;;;4956932;28;20865;-86
2022/09/28 08:41:18;;;;;;;1.90;1.70;;;11.80;81.80;;;;;;4955788;28;20792;-86
2022/09/28 08:43:59;;;;;;;2.67;1.53;;;11.90;82.70;;;;;;4966970;28;20509;-86
2022/09/28 08:46:32;;;;;;;1.90;1.27;;;11.80;82.80;;;;;;4969994;28;20464;-86
2022/09/28 08:49:02;;;;;;;1.20;1.10;;;11.80;82.60;;;;;;4972188;28;20466;-86
2022/09/28 08:52:13;;;;;;;2.30;1.20;;;11.90;82.20;;;;;;4956782;28;20462;-87
2022/09/28 08:55:03;;;;;;;1.53;1.00;;;11.90;81.40;;;;;;4957508;28;20513;-86
2022/09/28 08:57:36;;;;;;;1.87;1.20;;;11.80;82.40;;;;;;4975736;28;20482;-87
2022/09/28 09:00:05;;;;;;;4.20;1.30;;;11.80;83.00;;;;;;4974283;28;20466;-86
2022/09/28 09:02:38;;;;;;;1.67;1.20;;;11.90;83.20;;;;;;4973126;28;20460;-86
2022/09/28 09:05:13;;;;;;;0.93;0.93;;;11.90;82.30;;;;;;4958060;28;21197;-86
2022/09/28 09:08:03;;;;;;;1.50;1.37;;;12.00;82.90;;;;;;4957171;28;20454;-86
2022/09/28 09:10:41;;;;;;;3.13;1.53;;;12.00;83.50;;;;;;4962947;28;20458;-86
2022/09/28 09:13:17;;;;;;;1.50;1.20;;;12.10;82.20;;;;;;4954301;28;20530;-86
2022/09/28 09:15:56;;;;;;;2.70;0.90;;;12.20;80.70;;;;;;4949209;28;20482;-86
2022/09/28 09:18:45;;;;;;;1.80;0.80;;;12.20;80.20;;;;;;4973129;28;20527;-86
2022/09/28 09:21:32;;;;;;;2.57;0.87;;;12.30;80.50;;;;;;4955387;28;20825;-86
2022/09/28 09:24:20;;;;;;;6.10;1.03;;;12.30;80.80;;;;;;4955468;28;20557;-86
2022/09/28 09:26:49;;;;;;;1.90;1.17;;;12.40;81.00;;;;;;4968595;28;20494;-86
2022/09/28 09:29:36;;;;;;;1.03;0.73;;;12.40;78.90;;;;;;4952274;28;20462;-86
2022/09/28 09:32:03;;;;;;;2.43;1.20;;;12.50;78.90;;;;;;4959293;28;20520;-86
2022/09/28 09:34:30;;;;;;;2.33;1.50;;;12.40;79.50;;;;;;4967120;28;20458;-86
2022/09/28 09:36:56;;;;;;;2.80;1.20;;;12.40;79.60;;;;;;4966257;28;21056;-86
2022/09/28 09:39:59;;;;;;;1.33;1.10;;;12.40;79.00;;;;;;4966501;28;20569;-86
2022/09/28 09:42:47;;;;;;;2.00;1.07;;;12.40;78.40;;;;;;4952196;28;20563;-86
2022/09/28 09:45:54;;;;;;;2.60;0.83;;;12.30;78.80;;;;;;4968671;28;20501;-86
2022/09/28 09:48:43;;;;;;;2.20;1.07;;;12.30;79.10;;;;;;4942560;28;20524;-86
2022/09/28 09:51:23;;;;;;;3.13;0.97;;;12.30;78.50;;;;;;4972282;28;20522;-86
2022/09/28 09:54:10;;;;;;;1.13;0.90;;;12.20;78.60;;;;;;4967805;28;20513;-86
2022/09/28 09:56:43;;;;;;;1.93;0.87;;;12.30;78.10;;;;;;4954513;28;20465;-86
2022/09/28 09:59:22;;;;;;;3.13;1.20;;;12.20;78.50;;;;;;4970997;28;20466;-86
2022/09/28 10:01:51;;;;;;;2.83;1.10;;;12.20;79.20;;;;;;4956285;28;20461;-86
2022/09/28 10:04:34;;;;;;;0.80;0.80;;;12.30;78.10;;;;;;4954904;28;20866;-86
2022/09/28 10:07:10;;;;;;;1.73;1.27;;;12.30;78.40;;;;;;4950063;28;20828;-86
2022/09/28 10:09:42;;;;;;;2.17;0.80;;;12.30;78.30;;;;;;4952283;28;20466;-86
2022/09/28 10:12:14;;;;;;;0.70;0.63;;;12.40;78.30;;;;;;4955166;28;20543;-86
2022/09/28 10:14:40;;;;;;;1.00;0.87;;;12.50;77.50;;;;;;4958464;28;20525;-86
2022/09/28 10:17:14;;;;;;;3.87;1.10;;;12.50;76.00;;;;;;4956820;28;20493;-86
2022/09/28 10:19:41;;;;;;;0.90;0.90;;;12.50;76.70;;;;;;4959215;28;21011;-86
2022/09/28 10:22:15;;;;;;;1.10;0.80;;;12.50;77.20;;;;;;4955903;28;20557;-86
2022/09/28 10:24:48;;;;;;;1.20;0.90;;;12.50;76.80;;;;;;4960434;28;20532;-86
2022/09/28 10:27:29;;;;;;;1.27;0.60;;;12.50;77.00;;;;;;4944247;28;20530;-86
2022/09/28 10:30:08;;;;;;;1.03;0.60;;;12.70;77.00;;;;;;4975881;28;20462;-85
2022/09/28 10:32:43;;;;;;;0.70;0.60;;;12.80;74.70;;;;;;4977018;28;20565;-85
2022/09/28 10:35:39;;;;;;;0.63;0.63;;;12.80;75.40;;;;;;4971573;28;20473;-85
2022/09/28 10:38:16;;;;;;;1.10;1.00;;;12.90;73.80;;;;;;4958586;28;20493;-85
2022/09/28 10:41:09;;;;;;;1.50;0.70;;;12.80;74.70;;;;;;4947853;28;20458;-86
2022/09/28 10:43:47;;;;;;;0.60;0.60;;;12.80;75.00;;;;;;4952962;28;20967;-86
2022/09/28 10:46:22;;;;;;;1.27;0.80;;;12.70;75.20;;;;;;4956426;28;20474;-86
2022/09/28 10:49:14;;;;;;;1.23;1.13;;;12.80;74.70;;;;;;4972204;28;20537;-86
2022/09/28 10:51:53;;;;;;;1.20;0.60;;;12.70;74.00;;;;;;4975866;28;20956;-86
2022/09/28 10:54:22;;;;;;;1.30;0.70;;;12.80;72.30;;;;;;4953581;28;20497;-86
2022/09/28 10:56:51;;;;;;;1.27;0.70;;;12.70;73.80;;;;;;4954173;28;20472;-86
2022/09/28 10:59:30;;;;;;;1.10;1.10;;;12.70;74.30;;;;;;4948813;28;20515;-86
2022/09/28 11:02:24;;;;;;;0.90;0.77;;;12.60;74.80;;;;;;4956430;28;20791;-85
2022/09/28 11:04:56;;;;;;;0.77;0.60;;;12.60;75.00;;;;;;4957207;28;20447;-85
2022/09/28 11:07:26;;;;;;;1.83;1.23;;;12.60;75.10;;;;;;4956410;28;20517;-85
2022/09/28 11:09:54;;;;;;;4.13;1.17;;;12.60;75.60;;;;;;4972146;28;20458;-85
2022/09/28 11:12:23;;;;;;;2.40;0.80;;;12.60;75.80;;;;;;4956589;28;20461;-86
2022/09/28 11:15:00;;;;;;;3.50;0.80;;;12.60;76.00;;;;;;4958232;28;20470;-86
2022/09/28 11:17:32;;;;;;;2.87;0.80;;;12.70;76.00;;;;;;4957763;28;20497;-86
2022/09/28 11:20:19;;;;;;;2.07;0.90;;;12.80;74.40;;;;;;4976742;28;20462;-86
2022/09/28 11:23:15;;;;;;;1.00;0.90;;;12.80;74.40;;;;;;4975695;28;20462;-86
2022/09/28 11:25:42;;;;;;;1.20;1.20;;;12.90;73.90;;;;;;4957523;28;20810;-86
2022/09/28 11:28:21;;;;;;;0.87;0.70;;;13.00;74.10;;;;;;4956552;28;20454;-86
2022/09/28 11:30:52;;;;;;;1.87;0.93;;;13.00;72.90;;;;;;4950056;28;20564;-86
2022/09/28 11:33:25;;;;;;;2.00;1.70;;;13.20;69.90;;;;;;4973659;28;20493;-86
2022/09/28 11:36:21;;;;;;;1.10;0.90;;;13.30;68.50;;;;;;4955979;28;20462;-86
2022/09/28 11:39:27;;;;;;;0.70;0.70;;;13.30;69.90;;;;;;4966122;28;20487;-86
2022/09/28 11:41:53;;;;;;;2.23;1.00;;;13.30;71.20;;;;;;4975496;28;20450;-86
2022/09/28 11:44:36;;;;;;;0.87;0.87;;;13.30;71.20;;;;;;4972655;28;20470;-86
2022/09/28 11:47:40;;;;;;;2.67;0.90;;;13.20;71.20;;;;;;4970886;28;21043;-86
2022/09/28 11:50:19;;;;;;;1.17;0.57;;;13.30;71.90;;;;;;4955776;28;20505;-86
2022/09/28 11:53:12;;;;;;;1.13;0.90;;;13.40;70.70;;;;;;4959130;28;20458;-85
2022/09/28 11:55:54;;;;;;;0.70;0.70;;;13.40;69.20;;;;;;4975913;28;20454;-85
2022/09/28 11:58:33;;;;;;;1.70;0.90;;;13.50;67.80;;;;;;4972365;28;20999;-85
2022/09/28 12:01:34;;;;;;;0.80;0.80;;;13.40;68.90;;;;;;4962250;28;21136;-85
2022/09/28 12:04:20;;;;;;;1.00;0.97;;;13.40;70.00;;;;;;4973941;28;20493;-85
2022/09/28 12:06:57;;;;;;;2.90;1.10;;;13.30;70.90;;;;;;4955353;28;20866;-86
2022/09/28 12:09:34;;;;;;;1.03;0.80;;;13.30;71.50;;;;;;4953968;28;20462;-85
2022/09/28 12:12:06;;;;;;;1.20;1.10;;;13.30;71.50;;;;;;4955674;28;20464;-85
2022/09/28 12:14:38;;;;;;;1.03;0.90;;;13.20;72.00;;;;;;4956360;28;20470;-85
2022/09/28 12:17:08;;;;;;;0.73;0.73;;;13.30;70.90;;;;;;4957395;28;20486;-86
2022/09/28 12:19:47;;;;;;;2.93;1.30;;;13.30;70.70;;;;;;4974895;28;20867;-85
2022/09/28 12:22:23;;;;;;;1.03;0.93;;;13.40;70.00;;;;;;4958796;28;20431;-85
2022/09/28 12:24:54;;;;;;;0.80;0.60;;;13.30;70.80;;;;;;4964554;28;20493;-85
2022/09/28 12:27:34;;;;;;;2.13;0.93;;;13.40;70.50;;;;;;4969834;28;20485;-85
2022/09/28 12:30:10;;;;;;;2.23;1.00;;;13.30;71.70;;;;;;4956250;28;20460;-85
2022/09/28 12:32:46;;;;;;;1.10;1.00;;;13.30;70.90;;;;;;4973571;28;20458;-86
2022/09/28 12:35:51;;;;;;;0.80;0.80;;;13.30;71.00;;;;;;4971096;28;20462;-86
2022/09/28 12:38:21;;;;;;;0.40;0.40;;;13.50;69.20;;;;;;4950390;28;20502;-85
2022/09/28 12:40:50;;;;;;;1.10;0.90;;;13.50;69.70;;;;;;4974203;28;20454;-85
2022/09/28 12:43:20;;;;;;;1.23;0.60;;;13.50;69.30;;;;;;4956443;28;20524;-85
2022/09/28 12:46:14;;;;;;;1.20;0.87;;;13.50;69.10;;;;;;4956642;28;20442;-85
2022/09/28 12:49:08;;;;;;;0.77;0.77;;;13.40;69.90;;;;;;4967086;28;21092;-85
2022/09/28 12:52:07;;;;;;;0.97;0.63;;;13.40;70.30;;;;;;4957414;28;20473;-85
2022/09/28 12:54:43;;;;;;;1.47;0.73;;;13.40;68.30;;;;;;4955787;28;20494;-85
2022/09/28 12:57:22;;;;;;;2.87;0.70;;;13.50;69.00;;;;;;4970207;28;20481;-85
2022/09/28 13:00:17;;;;;;;1.27;0.83;;;13.40;70.20;;;;;;4958938;28;20458;-86
2022/09/28 13:03:19;;;;;;;1.57;0.90;;;13.40;70.60;;;;;;4959329;28;21039;-85
2022/09/28 13:06:05;;;;;;;1.47;1.10;;;13.30;71.70;;;;;;4971757;28;21518;-85
2022/09/28 13:09:13;;;;;;;1.03;0.90;;;13.30;71.90;;;;;;4972143;28;20525;-85
2022/09/28 13:12:10;;;;;;;1.03;0.70;;;13.40;70.90;;;;;;4940357;28;20542;-85
2022/09/28 13:14:55;;;;;;;0.80;0.80;;;13.40;70.40;;;;;;4974010;28;20466;-85
2022/09/28 13:17:52;;;;;;;2.10;0.80;;;13.60;68.40;;;;;;4972530;28;20482;-86
2022/09/28 13:20:37;;;;;;;0.80;0.70;;;13.60;69.40;;;;;;4973092;28;20466;-86
2022/09/28 13:23:24;;;;;;;0.80;0.80;;;13.70;69.00;;;;;;4955332;28;20840;-85
2022/09/28 13:26:16;;;;;;;2.13;0.80;;;13.60;70.00;;;;;;4954231;28;20883;-85
2022/09/28 13:28:45;;;;;;;0.97;0.60;;;13.60;70.70;;;;;;4971708;28;20494;-85
2022/09/28 13:31:18;;;;;;;2.10;0.77;;;13.70;69.90;;;;;;4973837;28;20506;-85
2022/09/28 13:33:46;;;;;;;0.80;0.60;;;13.60;69.50;;;;;;4974126;28;20462;-85
2022/09/28 13:36:41;;;;;;;1.80;0.83;;;13.60;69.20;;;;;;4972244;28;20885;-85